createdAt,value
2019-05-10T00:01:26.265Z,10.90
2019-05-10T00:04:04.501Z,10.90
2019-05-10T00:06:43.033Z,10.90
2019-05-10T00:09:03.988Z,11.00
2019-05-10T00:11:34.885Z,11.00
2019-05-10T00:13:56.399Z,11.00
2019-05-10T00:16:16.497Z,11.00
2019-05-10T00:18:36.650Z,11.10
2019-05-10T00:20:57.027Z,11.00
2019-05-10T00:23:16.811Z,11.10
2019-05-10T00:25:36.574Z,11.10
2019-05-10T00:27:56.327Z,11.00
2019-05-10T00:30:16.537Z,11.10
2019-05-10T00:32:36.191Z,11.00
2019-05-10T00:34:55.993Z,11.10
2019-05-10T00:37:15.817Z,11.10
2019-05-10T00:39:35.725Z,11.10
2019-05-10T00:41:55.674Z,11.10
2019-05-10T00:44:15.595Z,11.10
2019-05-10T00:46:35.474Z,11.10
2019-05-10T00:48:55.377Z,11.20
2019-05-10T00:51:15.451Z,11.20
2019-05-10T00:53:35.314Z,11.10
2019-05-10T00:55:55.608Z,11.10
2019-05-10T00:58:16.024Z,11.10
2019-05-10T01:00:36.285Z,11.10
2019-05-10T01:02:56.346Z,11.10
2019-05-10T01:05:16.425Z,11.10
2019-05-10T01:07:36.538Z,11.10
2019-05-10T01:09:56.053Z,11.10
2019-05-10T01:12:16.196Z,11.10
2019-05-10T01:14:36.157Z,11.10
2019-05-10T01:16:55.831Z,11.10
2019-05-10T01:19:15.629Z,11.10
2019-05-10T01:21:35.705Z,11.10
2019-05-10T01:23:55.684Z,11.10
2019-05-10T01:26:15.795Z,11.10
2019-05-10T01:28:35.304Z,11.10
2019-05-10T01:30:55.115Z,11.20
2019-05-10T01:33:14.837Z,11.20
2019-05-10T01:35:34.541Z,11.20
2019-05-10T01:37:54.752Z,11.20
2019-05-10T01:40:14.901Z,11.10
2019-05-10T01:42:34.613Z,11.20
2019-05-10T01:44:54.826Z,11.20
2019-05-10T01:47:14.805Z,11.10
2019-05-10T01:49:34.861Z,11.10
2019-05-10T01:51:54.843Z,11.10
2019-05-10T01:54:14.860Z,11.10
2019-05-10T01:56:34.549Z,11.10
2019-05-10T01:58:54.685Z,11.20
2019-05-10T02:01:14.650Z,11.20
2019-05-10T02:03:34.518Z,11.20
2019-05-10T02:05:54.317Z,11.20
2019-05-10T02:08:14.072Z,11.20
2019-05-10T02:10:33.944Z,11.10
2019-05-10T02:12:53.720Z,11.10
2019-05-10T02:15:13.841Z,11.10
2019-05-10T02:17:33.718Z,11.10
2019-05-10T02:19:54.022Z,11.20
2019-05-10T02:22:13.734Z,11.20
2019-05-10T02:24:33.701Z,11.10
2019-05-10T02:26:53.724Z,11.20
2019-05-10T02:29:13.697Z,11.10
2019-05-10T02:31:34.028Z,11.20
2019-05-10T02:33:54.160Z,11.10
2019-05-10T02:36:13.962Z,11.10
2019-05-10T02:38:33.794Z,11.10
2019-05-10T02:40:53.286Z,11.00
2019-05-10T02:43:14.212Z,11.00
2019-05-10T02:45:34.105Z,11.00
2019-05-10T02:47:53.611Z,10.90
2019-05-10T02:50:13.390Z,10.90
2019-05-10T02:52:33.449Z,10.80
2019-05-10T02:54:53.926Z,10.70
2019-05-10T02:57:13.901Z,10.70
2019-05-10T02:59:34.099Z,10.70
2019-05-10T03:01:55.305Z,10.70
2019-05-10T03:04:14.806Z,10.70
2019-05-10T03:06:35.449Z,10.70
2019-05-10T03:08:55.457Z,10.70
2019-05-10T03:11:15.409Z,10.80
2019-05-10T03:13:35.359Z,10.80
2019-05-10T03:15:55.341Z,10.80
2019-05-10T03:18:16.595Z,10.80
2019-05-10T03:20:36.585Z,10.80
2019-05-10T03:22:56.526Z,10.80
2019-05-10T03:25:16.449Z,10.80
2019-05-10T03:27:36.216Z,10.80
2019-05-10T03:29:56.299Z,10.80
2019-05-10T03:32:16.131Z,10.80
2019-05-10T03:34:36.062Z,10.70
2019-05-10T03:36:56.051Z,10.70
2019-05-10T03:39:16.462Z,10.70
2019-05-10T03:41:36.571Z,10.60
2019-05-10T03:43:56.284Z,10.60
2019-05-10T03:46:16.382Z,10.60
2019-05-10T03:48:35.830Z,10.60
2019-05-10T03:50:55.611Z,10.50
2019-05-10T03:53:15.292Z,10.40
2019-05-10T03:55:35.053Z,10.40
2019-05-10T03:57:54.843Z,10.40
2019-05-10T04:00:15.030Z,10.30
2019-05-10T04:02:34.939Z,10.30
2019-05-10T04:04:54.791Z,10.20
2019-05-10T04:07:14.506Z,10.20
2019-05-10T04:09:34.590Z,10.20
2019-05-10T04:11:54.748Z,10.20
2019-05-10T04:14:14.498Z,10.10
2019-05-10T04:16:34.472Z,10.10
2019-05-10T04:18:54.424Z,10.20
2019-05-10T04:21:14.145Z,10.30
2019-05-10T04:23:34.102Z,10.30
2019-05-10T04:25:54.935Z,10.40
2019-05-10T04:28:14.888Z,10.40
2019-05-10T04:30:34.825Z,10.40
2019-05-10T04:32:54.675Z,10.50
2019-05-10T04:35:14.761Z,10.50
2019-05-10T04:37:35.453Z,10.50
2019-05-10T04:39:54.977Z,10.50
2019-05-10T04:42:14.687Z,10.50
2019-05-10T04:44:34.786Z,10.50
2019-05-10T04:46:54.871Z,10.50
2019-05-10T04:49:14.849Z,10.50
2019-05-10T04:51:34.639Z,10.50
2019-05-10T04:53:54.301Z,10.50
2019-05-10T04:56:14.210Z,10.50
2019-05-10T04:58:34.277Z,10.60
2019-05-10T05:00:54.337Z,10.60
2019-05-10T05:03:14.110Z,10.50
2019-05-10T05:05:34.068Z,10.50
2019-05-10T05:07:53.829Z,10.60
2019-05-10T05:10:13.658Z,10.50
2019-05-10T05:12:33.952Z,10.50
2019-05-10T05:14:54.047Z,10.50
2019-05-10T05:17:14.044Z,10.50
2019-05-10T05:19:34.086Z,10.50
2019-05-10T05:21:54.213Z,10.40
2019-05-10T05:24:16.946Z,10.50
2019-05-10T05:26:36.293Z,10.40
2019-05-10T05:28:56.330Z,10.40
2019-05-10T05:31:16.322Z,10.40
2019-05-10T05:33:37.663Z,10.40
2019-05-10T05:35:57.585Z,10.30
2019-05-10T05:38:17.630Z,10.30
2019-05-10T05:40:37.414Z,10.30
2019-05-10T05:42:57.292Z,10.30
2019-05-10T05:45:17.473Z,10.30
2019-05-10T05:47:41.833Z,10.20
2019-05-10T05:49:59.358Z,10.30
2019-05-10T05:52:19.142Z,10.30
2019-05-10T05:54:38.769Z,10.30
2019-05-10T05:56:58.573Z,10.30
2019-05-10T05:59:23.850Z,10.30
2019-05-10T06:01:41.665Z,10.20
2019-05-10T06:04:06.480Z,10.30
2019-05-10T06:06:23.698Z,10.30
2019-05-10T06:08:43.597Z,10.30
2019-05-10T06:11:03.510Z,10.20
2019-05-10T06:13:29.657Z,10.20
2019-05-10T06:15:45.070Z,10.30
2019-05-10T06:18:09.794Z,10.30
2019-05-10T06:20:27.029Z,10.30
2019-05-10T06:23:05.251Z,10.30
2019-05-10T06:25:08.979Z,10.20
2019-05-10T06:27:28.650Z,10.20
2019-05-10T06:29:47.966Z,10.20
2019-05-10T06:32:07.445Z,10.20
2019-05-10T06:34:32.201Z,10.10
2019-05-10T06:36:49.917Z,10.20
2019-05-10T06:39:10.050Z,10.20
2019-05-10T06:41:32.568Z,10.20
2019-05-10T06:43:53.124Z,10.20
2019-05-10T06:46:13.312Z,10.20
2019-05-10T06:48:33.784Z,10.20
2019-05-10T06:50:53.745Z,10.30
2019-05-10T06:53:14.792Z,10.30
2019-05-10T06:55:34.848Z,10.20
2019-05-10T06:57:59.301Z,10.20
2019-05-10T07:00:16.962Z,10.20
2019-05-10T07:02:36.613Z,10.20
2019-05-10T07:04:55.890Z,10.20
2019-05-10T07:07:22.424Z,10.30
2019-05-10T07:10:01.752Z,10.30
2019-05-10T07:11:58.488Z,10.30
2019-05-10T07:14:18.441Z,10.30
2019-05-10T07:16:37.749Z,10.40
2019-05-10T07:19:00.612Z,10.40
2019-05-10T07:21:20.618Z,10.40
2019-05-10T07:23:44.852Z,10.40
2019-05-10T07:26:01.445Z,10.40
2019-05-10T07:28:21.099Z,10.30
2019-05-10T07:30:41.641Z,10.40
2019-05-10T07:33:02.057Z,10.40
2019-05-10T07:35:23.041Z,10.30
2019-05-10T07:37:47.717Z,10.30
2019-05-10T07:40:05.454Z,10.40
2019-05-10T07:42:24.987Z,10.30
2019-05-10T07:44:46.681Z,10.30
2019-05-10T07:47:05.814Z,10.30
2019-05-10T07:49:30.401Z,10.40
2019-05-10T07:51:46.935Z,10.40
2019-05-10T07:54:06.648Z,10.40
2019-05-10T07:56:26.070Z,10.60
2019-05-10T07:58:45.617Z,10.60
2019-05-10T08:01:05.225Z,10.70
2019-05-10T08:03:25.038Z,10.80
2019-05-10T08:05:46.308Z,10.80
2019-05-10T08:08:06.274Z,10.80
2019-05-10T08:10:25.993Z,10.80
2019-05-10T08:12:48.423Z,10.80
2019-05-10T08:15:08.628Z,10.80
2019-05-10T08:17:28.679Z,10.90
2019-05-10T08:19:48.316Z,10.90
2019-05-10T08:22:09.346Z,11.00
2019-05-10T08:24:29.136Z,11.10
2019-05-10T08:26:48.771Z,11.20
2019-05-10T08:29:13.613Z,11.20
2019-05-10T08:31:31.876Z,11.20
2019-05-10T08:33:57.194Z,11.20
2019-05-10T08:36:13.486Z,11.30
2019-05-10T08:38:33.034Z,11.40
2019-05-10T08:40:52.996Z,11.50
2019-05-10T08:43:16.434Z,11.40
2019-05-10T08:45:38.795Z,11.40
2019-05-10T08:48:01.018Z,11.50
2019-05-10T08:50:34.490Z,11.60
2019-05-10T08:52:39.113Z,11.70
2019-05-10T08:54:58.622Z,11.70
2019-05-10T08:57:18.730Z,11.80
2019-05-10T08:59:38.617Z,11.80
2019-05-10T09:01:58.557Z,11.90
2019-05-10T09:04:19.006Z,11.80
2019-05-10T09:06:38.685Z,11.90
2019-05-10T09:09:03.574Z,12.00
2019-05-10T09:11:20.370Z,12.10
2019-05-10T09:13:45.010Z,12.10
2019-05-10T09:16:02.436Z,11.90
2019-05-10T09:18:23.021Z,11.90
2019-05-10T09:20:42.554Z,11.70
2019-05-10T09:23:02.544Z,11.70
2019-05-10T09:25:29.187Z,11.80
2019-05-10T09:27:44.474Z,11.80
2019-05-10T09:30:08.293Z,12.10
2019-05-10T09:32:28.931Z,12.10
2019-05-10T09:34:48.129Z,12.00
2019-05-10T09:37:12.805Z,12.10
2019-05-10T09:39:32.119Z,11.90
2019-05-10T09:41:52.750Z,12.00
2019-05-10T09:44:13.045Z,11.90
2019-05-10T09:46:32.837Z,11.70
2019-05-10T09:48:54.495Z,11.70
2019-05-10T09:51:14.020Z,11.60
2019-05-10T09:53:38.028Z,11.60
2019-05-10T09:56:02.522Z,11.50
2019-05-10T09:58:22.094Z,11.60
2019-05-10T10:00:40.108Z,11.70
2019-05-10T10:03:01.859Z,11.80
2019-05-10T10:05:22.582Z,12.10
2019-05-10T10:07:42.404Z,12.10
2019-05-10T10:10:01.922Z,12.20
2019-05-10T10:12:21.254Z,12.30
2019-05-10T10:14:43.207Z,12.40
2019-05-10T10:17:03.283Z,12.60
2019-05-10T10:19:24.572Z,12.60
2019-05-10T10:21:44.401Z,12.50
2019-05-10T10:24:12.632Z,12.40
2019-05-10T10:26:26.885Z,12.60
2019-05-10T10:28:49.664Z,12.60
2019-05-10T10:31:08.924Z,12.70
2019-05-10T10:33:29.306Z,12.40
2019-05-10T10:35:50.585Z,12.20
2019-05-10T10:38:10.708Z,12.00
2019-05-10T10:40:35.328Z,11.90
2019-05-10T10:42:52.304Z,11.90
2019-05-10T10:45:12.296Z,12.00
2019-05-10T10:47:32.419Z,12.30
2019-05-10T10:49:52.390Z,12.60
2019-05-10T10:52:13.482Z,12.30
2019-05-10T10:54:36.713Z,12.10
2019-05-10T10:56:54.749Z,12.30
2019-05-10T10:59:14.245Z,12.40
2019-05-10T11:01:49.189Z,12.60
2019-05-10T11:03:55.217Z,12.60
2019-05-10T11:06:15.469Z,12.70
2019-05-10T11:08:35.151Z,12.80
2019-05-10T11:10:54.973Z,13.00
2019-05-10T11:13:23.786Z,13.20
2019-05-10T11:15:36.763Z,13.50
2019-05-10T11:17:56.607Z,13.40
2019-05-10T11:20:15.968Z,13.60
2019-05-10T11:22:35.522Z,13.30
2019-05-10T11:25:03.085Z,13.40
2019-05-10T11:27:17.440Z,13.40
2019-05-10T11:29:37.077Z,13.60
2019-05-10T11:32:14.326Z,13.90
2019-05-10T11:34:18.124Z,14.00
2019-05-10T11:36:40.627Z,13.90
2019-05-10T11:39:01.343Z,13.80
2019-05-10T11:41:23.793Z,13.90
2019-05-10T11:43:42.151Z,14.00
2019-05-10T11:46:01.971Z,14.20
2019-05-10T11:48:21.733Z,14.30
2019-05-10T11:50:41.577Z,14.40
2019-05-10T11:53:01.578Z,14.20
2019-05-10T11:55:21.884Z,14.00
2019-05-10T11:57:44.225Z,13.70
2019-05-10T12:00:04.436Z,13.60
2019-05-10T12:02:37.301Z,13.60
2019-05-10T12:04:45.813Z,13.50
2019-05-10T12:07:08.387Z,13.50
2019-05-10T12:09:26.829Z,13.60
2019-05-10T12:11:51.758Z,13.70
2019-05-10T12:14:07.790Z,13.80
2019-05-10T12:16:27.789Z,13.90
2019-05-10T12:19:05.576Z,14.00
2019-05-10T12:21:11.191Z,13.80
2019-05-10T12:23:31.668Z,14.20
2019-05-10T12:26:50.503Z,14.10
2019-05-10T12:28:15.361Z,13.90
2019-05-10T12:30:37.106Z,14.10
2019-05-10T12:33:04.631Z,14.70
2019-05-10T12:35:18.386Z,14.90
2019-05-10T12:37:39.699Z,14.40
2019-05-10T12:40:06.243Z,14.50
2019-05-10T12:42:21.778Z,14.70
2019-05-10T12:44:43.936Z,14.30
2019-05-10T12:47:02.959Z,14.50
2019-05-10T12:49:22.429Z,15.10
2019-05-10T12:51:43.291Z,15.50
2019-05-10T12:54:03.005Z,15.70
2019-05-10T12:56:23.183Z,15.90
2019-05-10T12:58:42.682Z,16.70
2019-05-10T13:01:02.486Z,17.10
2019-05-10T13:03:25.410Z,16.00
2019-05-10T13:05:52.448Z,15.10
2019-05-10T13:08:06.034Z,14.90
2019-05-10T13:10:25.953Z,15.20
2019-05-10T13:12:47.432Z,15.40
2019-05-10T13:15:07.602Z,15.70
2019-05-10T13:17:27.518Z,15.60
2019-05-10T13:19:47.113Z,15.70
2019-05-10T13:22:07.525Z,15.90
2019-05-10T13:24:27.486Z,16.00
2019-05-10T13:26:47.450Z,16.90
2019-05-10T13:29:08.611Z,17.70
2019-05-10T13:31:28.966Z,18.30
2019-05-10T13:33:49.101Z,16.90
2019-05-10T13:36:09.040Z,16.90
2019-05-10T13:38:29.301Z,16.20
2019-05-10T13:40:49.890Z,16.00
2019-05-10T13:43:10.045Z,16.10
2019-05-10T13:45:31.687Z,16.20
2019-05-10T13:47:51.990Z,16.50
2019-05-10T13:50:12.037Z,16.30
2019-05-10T13:52:37.502Z,16.10
2019-05-10T13:54:56.023Z,15.40
2019-05-10T13:57:15.766Z,15.60
2019-05-10T13:59:35.774Z,16.20
2019-05-10T14:01:55.708Z,16.50
2019-05-10T14:04:16.048Z,16.70
2019-05-10T14:06:35.599Z,16.90
2019-05-10T14:08:55.397Z,16.90
2019-05-10T14:11:15.285Z,16.80
2019-05-10T14:13:35.828Z,16.20
2019-05-10T14:15:56.725Z,15.90
2019-05-10T14:18:16.757Z,15.70
2019-05-10T14:20:36.222Z,15.80
2019-05-10T14:22:58.595Z,15.90
2019-05-10T14:25:17.813Z,16.30
2019-05-10T14:27:38.655Z,16.60
2019-05-10T14:29:58.909Z,16.80
2019-05-10T14:32:18.703Z,16.90
2019-05-10T14:34:44.228Z,17.30
2019-05-10T14:37:00.245Z,17.60
2019-05-10T14:39:20.909Z,17.90
2019-05-10T14:41:45.438Z,17.60
2019-05-10T14:44:02.337Z,17.40
2019-05-10T14:46:22.054Z,17.00
2019-05-10T14:48:41.676Z,16.30
2019-05-10T14:51:02.977Z,15.80
2019-05-10T14:53:25.578Z,15.50
2019-05-10T14:55:45.001Z,16.00
2019-05-10T14:58:04.825Z,16.50
2019-05-10T15:00:24.787Z,16.50
2019-05-10T15:02:44.469Z,16.70
2019-05-10T15:05:08.715Z,16.80
2019-05-10T15:07:26.505Z,17.10
2019-05-10T15:09:46.529Z,17.30
2019-05-10T15:12:10.277Z,17.50
2019-05-10T15:14:27.916Z,16.90
2019-05-10T15:16:47.733Z,17.20
2019-05-10T15:19:07.463Z,16.60
2019-05-10T15:21:28.577Z,16.80
2019-05-10T15:23:48.138Z,16.90
2019-05-10T15:26:11.861Z,17.00
2019-05-10T15:28:34.648Z,16.00
2019-05-10T15:30:52.636Z,15.80
2019-05-10T15:33:12.801Z,15.40
2019-05-10T15:35:33.566Z,14.80
2019-05-10T15:37:53.361Z,14.80
2019-05-10T15:40:13.385Z,14.70
2019-05-10T15:42:36.119Z,14.90
2019-05-10T15:44:54.973Z,15.10
2019-05-10T15:47:20.279Z,14.80
2019-05-10T15:49:36.912Z,14.70
2019-05-10T15:52:15.173Z,15.00
2019-05-10T15:54:18.073Z,15.10
2019-05-10T15:56:41.676Z,15.10
2019-05-10T15:58:59.810Z,15.30
2019-05-10T16:01:26.075Z,15.30
2019-05-10T16:03:41.079Z,15.50
2019-05-10T16:06:01.242Z,16.70
2019-05-10T16:08:23.888Z,17.50
2019-05-10T16:10:42.093Z,17.90
2019-05-10T16:13:01.884Z,18.00
2019-05-10T16:15:21.347Z,17.60
2019-05-10T16:17:40.718Z,16.80
2019-05-10T16:20:01.479Z,15.80
2019-05-10T16:22:25.253Z,15.40
2019-05-10T16:24:42.590Z,15.20
2019-05-10T16:27:02.362Z,15.60
2019-05-10T16:29:22.257Z,15.60
2019-05-10T16:31:41.600Z,15.30
2019-05-10T16:34:01.220Z,14.90
2019-05-10T16:36:23.026Z,14.60
2019-05-10T16:38:42.692Z,15.00
2019-05-10T16:41:02.361Z,14.70
2019-05-10T16:43:24.641Z,15.30
2019-05-10T16:45:44.057Z,15.50
2019-05-10T16:48:05.824Z,15.70
2019-05-10T16:50:31.271Z,15.60
2019-05-10T16:52:47.444Z,15.80
2019-05-10T16:55:09.652Z,15.60
2019-05-10T16:57:31.880Z,15.40
2019-05-10T16:59:50.065Z,15.20
2019-05-10T17:02:11.926Z,15.30
2019-05-10T17:04:36.990Z,15.20
2019-05-10T17:06:54.900Z,15.40
2019-05-10T17:09:18.239Z,15.70
2019-05-10T17:11:35.805Z,16.00
2019-05-10T17:13:55.795Z,16.20
2019-05-10T17:16:17.106Z,16.40
2019-05-10T17:18:36.900Z,16.50
2019-05-10T17:20:56.470Z,16.60
2019-05-10T17:23:15.966Z,16.60
2019-05-10T17:25:35.676Z,16.60
2019-05-10T17:27:59.841Z,16.70
2019-05-10T17:30:21.627Z,16.80
2019-05-10T17:32:40.080Z,16.80
2019-05-10T17:35:04.830Z,16.90
2019-05-10T17:37:21.131Z,16.80
2019-05-10T17:39:40.716Z,16.70
2019-05-10T17:42:03.060Z,16.80
2019-05-10T17:44:23.118Z,16.80
2019-05-10T17:46:43.368Z,16.60
2019-05-10T17:49:02.973Z,16.60
2019-05-10T17:51:22.653Z,16.60
2019-05-10T17:53:42.555Z,16.50
2019-05-10T17:56:02.857Z,16.50
2019-05-10T17:58:27.846Z,16.60
2019-05-10T18:00:44.808Z,16.40
2019-05-10T18:03:04.429Z,16.40
2019-05-10T18:05:24.111Z,16.40
2019-05-10T18:07:44.769Z,16.40
2019-05-10T18:10:05.038Z,16.40
2019-05-10T18:12:27.161Z,16.40
2019-05-10T18:14:50.153Z,16.30
2019-05-10T18:17:08.065Z,16.30
2019-05-10T18:19:28.020Z,16.30
2019-05-10T18:21:47.792Z,16.30
2019-05-10T18:24:07.202Z,16.20
2019-05-10T18:26:26.617Z,16.20
2019-05-10T18:28:46.386Z,16.10
2019-05-10T18:31:05.838Z,16.10
2019-05-10T18:33:25.385Z,16.00
2019-05-10T18:35:47.430Z,16.00
2019-05-10T18:38:07.973Z,15.90
2019-05-10T18:40:31.708Z,15.90
2019-05-10T18:42:49.026Z,15.90
2019-05-10T18:45:08.784Z,15.80
2019-05-10T18:47:28.509Z,15.80
2019-05-10T18:49:47.751Z,15.80
2019-05-10T18:52:07.294Z,15.70
2019-05-10T18:54:26.992Z,15.70
2019-05-10T18:56:46.600Z,15.60
2019-05-10T18:59:07.534Z,15.50
2019-05-10T19:01:32.505Z,15.50
2019-05-10T19:03:50.265Z,15.50
2019-05-10T19:06:13.070Z,15.40
2019-05-10T19:08:31.582Z,15.40
2019-05-10T19:10:50.917Z,15.40
2019-05-10T19:13:10.873Z,15.40
2019-05-10T19:15:30.566Z,15.30
2019-05-10T19:17:50.176Z,15.30
2019-05-10T19:20:16.374Z,15.30
2019-05-10T19:22:31.522Z,15.30
2019-05-10T19:24:51.168Z,15.30
2019-05-10T19:27:10.793Z,15.20
2019-05-10T19:29:30.514Z,15.20
2019-05-10T19:31:50.117Z,15.10
2019-05-10T19:34:15.415Z,15.10
2019-05-10T19:36:31.593Z,15.10
2019-05-10T19:38:50.941Z,15.00
2019-05-10T19:41:10.533Z,15.00
2019-05-10T19:43:30.061Z,15.00
2019-05-10T19:45:51.086Z,14.90
2019-05-10T19:48:11.293Z,14.90
2019-05-10T19:50:33.037Z,14.80
2019-05-10T19:52:52.365Z,14.80
2019-05-10T19:55:19.571Z,14.80
2019-05-10T19:57:34.028Z,14.80
2019-05-10T19:59:55.892Z,14.70
2019-05-10T20:02:15.794Z,14.70
2019-05-10T20:04:35.454Z,14.70
2019-05-10T20:06:55.157Z,14.70
2019-05-10T20:09:14.873Z,14.60
2019-05-10T20:11:34.918Z,14.60
2019-05-10T20:13:55.250Z,14.60
2019-05-10T20:16:15.118Z,14.50
2019-05-10T20:18:34.921Z,14.50
2019-05-10T20:20:55.205Z,14.40
2019-05-10T20:23:15.041Z,14.30
2019-05-10T20:25:34.895Z,14.40
2019-05-10T20:27:54.725Z,14.40
2019-05-10T20:30:14.898Z,14.40
2019-05-10T20:32:35.068Z,14.30
2019-05-10T20:34:55.105Z,14.20
2019-05-10T20:37:15.525Z,14.30
2019-05-10T20:39:35.762Z,14.20
2019-05-10T20:41:56.246Z,13.90
2019-05-10T20:44:18.112Z,14.00
2019-05-10T20:46:37.909Z,13.90
2019-05-10T20:48:57.873Z,13.80
2019-05-10T20:51:17.827Z,13.90
2019-05-10T20:53:38.142Z,14.00
2019-05-10T20:55:58.262Z,14.00
2019-05-10T20:58:18.142Z,14.10
2019-05-10T21:00:38.866Z,14.00
2019-05-10T21:02:58.883Z,13.90
2019-05-10T21:05:18.922Z,14.00
2019-05-10T21:07:38.460Z,14.00
2019-05-10T21:09:58.282Z,14.10
2019-05-10T21:12:18.077Z,14.10
2019-05-10T21:14:37.876Z,14.10
2019-05-10T21:16:58.009Z,14.10
2019-05-10T21:19:20.102Z,14.10
2019-05-10T21:21:39.925Z,14.10
2019-05-10T21:23:59.880Z,13.90
2019-05-10T21:26:19.592Z,13.90
2019-05-10T21:28:39.552Z,14.00
2019-05-10T21:30:59.227Z,13.90
2019-05-10T21:33:19.262Z,13.90
2019-05-10T21:35:39.313Z,13.90
2019-05-10T21:37:59.481Z,13.90
2019-05-10T21:40:19.333Z,14.00
2019-05-10T21:42:39.231Z,13.90
2019-05-10T21:44:59.239Z,13.90
2019-05-10T21:47:18.744Z,13.90
2019-05-10T21:49:38.876Z,13.80
2019-05-10T21:51:58.597Z,13.80
2019-05-10T21:54:18.667Z,13.80
2019-05-10T21:56:38.794Z,13.70
2019-05-10T21:58:58.636Z,13.70
2019-05-10T22:01:18.586Z,13.80
2019-05-10T22:03:38.312Z,13.70
2019-05-10T22:05:58.133Z,13.70
2019-05-10T22:08:17.840Z,13.60
2019-05-10T22:10:38.006Z,13.40
2019-05-10T22:12:58.121Z,13.40
2019-05-10T22:15:18.057Z,13.50
2019-05-10T22:17:37.603Z,13.50
2019-05-10T22:19:57.238Z,13.40
2019-05-10T22:22:17.286Z,13.50
2019-05-10T22:24:37.093Z,13.50
2019-05-10T22:26:56.867Z,13.50
2019-05-10T22:29:16.622Z,13.50
2019-05-10T22:31:36.696Z,13.40
2019-05-10T22:33:56.249Z,13.40
2019-05-10T22:36:16.134Z,13.30
2019-05-10T22:38:35.958Z,13.30
2019-05-10T22:40:55.885Z,13.30
2019-05-10T22:43:16.300Z,13.30
2019-05-10T22:45:36.909Z,13.20
2019-05-10T22:47:56.525Z,13.10
2019-05-10T22:50:16.427Z,13.10
2019-05-10T22:52:36.327Z,13.10
2019-05-10T22:54:56.092Z,13.00
2019-05-10T22:57:15.769Z,12.70
2019-05-10T22:59:35.584Z,12.20
2019-05-10T23:01:55.429Z,12.40
2019-05-10T23:04:15.423Z,12.60
2019-05-10T23:06:34.837Z,12.50
2019-05-10T23:08:54.621Z,12.50
2019-05-10T23:11:14.481Z,12.50
2019-05-10T23:13:34.620Z,12.60
2019-05-10T23:15:54.558Z,12.50
2019-05-10T23:18:15.393Z,12.50
2019-05-10T23:20:35.329Z,12.50
2019-05-10T23:22:55.360Z,12.50
2019-05-10T23:25:15.313Z,12.50
2019-05-10T23:27:35.542Z,12.30
2019-05-10T23:29:55.098Z,12.10
2019-05-10T23:32:14.929Z,12.00
2019-05-10T23:34:34.905Z,11.80
2019-05-10T23:36:55.250Z,11.80
2019-05-10T23:39:15.313Z,11.90
2019-05-10T23:41:35.291Z,12.00
2019-05-10T23:43:55.393Z,12.00
2019-05-10T23:46:15.393Z,12.00
2019-05-10T23:48:35.158Z,12.00
2019-05-10T23:50:54.854Z,12.10
2019-05-10T23:53:14.600Z,12.00
2019-05-10T23:55:34.361Z,12.00
2019-05-10T23:57:54.196Z,12.00
